Time;durP1;ratioP1;P1;durP2;ratioP2;P2;SDS_P1;SDS_P2;PMS_P1;PMS_P2;Temp;Humidity;BMP_temperature;BMP_pressure;BME280_temperature;BME280_humidity;BME280_pressure;Samples;Min_cycle;Max_cycle;Signal;HPM_P1;HPM_P2
2022/01/25 00:33:32;;;;;;;41.20;26.45;;;4.80;99.90;;;;;;5015128;28;20409;-64
2022/01/25 00:35:59;;;;;;;45.72;29.80;;;4.80;99.90;;;;;;5030753;28;20056;-64
2022/01/25 00:38:26;;;;;;;43.28;28.13;;;4.80;99.90;;;;;;5031251;28;20046;-64
2022/01/25 00:40:53;;;;;;;46.25;29.52;;;4.80;99.90;;;;;;5014267;28;20132;-64
2022/01/25 00:43:22;;;;;;;42.33;26.33;;;4.70;99.90;;;;;;5013773;28;20049;-64
2022/01/25 00:45:52;;;;;;;49.80;31.48;;;4.60;99.90;;;;;;4978216;28;20477;-64
2022/01/25 00:48:30;;;;;;;46.83;28.75;;;4.60;99.90;;;;;;5007108;28;20151;-64
2022/01/25 00:51:19;;;;;;;46.58;28.60;;;4.60;99.90;;;;;;5019341;28;20396;-64
2022/01/25 00:56:20;;;;;;;45.90;27.25;;;4.60;99.90;;;;;;5038403;28;20412;-64
2022/01/25 00:58:47;;;;;;;45.55;29.33;;;4.60;99.90;;;;;;5021488;28;20139;-64
2022/01/25 01:01:14;;;;;;;44.38;27.55;;;4.60;99.90;;;;;;5021289;28;20049;-64
2022/01/25 01:03:41;;;;;;;43.25;26.55;;;4.60;99.90;;;;;;5002871;28;20404;-64
2022/01/25 01:06:08;;;;;;;46.58;29.73;;;4.60;99.90;;;;;;5034714;28;20057;-64
2022/01/25 01:08:35;;;;;;;42.10;27.73;;;4.60;99.90;;;;;;5018964;28;20049;-64
2022/01/25 01:11:06;;;;;;;44.22;26.67;;;4.60;99.90;;;;;;5024049;28;20381;-63
2022/01/25 01:14:21;;;;;;;46.42;28.45;;;4.60;99.90;;;;;;5008961;28;20053;-64
2022/01/25 01:33:26;;;;;;;37.38;24.17;;;4.70;99.90;;;;;;5034937;28;20148;-64
2022/01/25 01:43:30;;;;;;;42.80;28.63;;;4.70;99.90;;;;;;5018569;28;20049;-64
2022/01/25 01:48:50;;;;;;;40.85;25.33;;;4.80;99.90;;;;;;5034103;28;20045;-64
2022/01/25 01:51:25;;;;;;;42.65;25.80;;;4.80;99.90;;;;;;5002560;28;20474;-64
2022/01/25 01:53:54;;;;;;;41.33;26.05;;;4.80;99.90;;;;;;4981691;28;20049;-64
2022/01/25 01:56:21;;;;;;;44.42;26.35;;;4.90;99.90;;;;;;4997591;28;20133;-64
2022/01/25 01:58:49;;;;;;;38.83;24.25;;;4.90;99.90;;;;;;5014586;28;20061;-64
2022/01/25 02:01:17;;;;;;;37.20;25.17;;;4.90;99.90;;;;;;4995776;28;20058;-64
2022/01/25 02:03:44;;;;;;;37.55;27.40;;;4.90;99.90;;;;;;4997137;28;20057;-64
2022/01/25 02:06:11;;;;;;;39.05;26.88;;;4.90;99.90;;;;;;4996528;28;20049;-64
2022/01/25 02:08:38;;;;;;;47.17;28.30;;;4.80;99.90;;;;;;4997117;28;20461;-64
2022/01/25 02:11:05;;;;;;;41.00;26.45;;;4.80;99.90;;;;;;5014781;28;20126;-64
2022/01/25 02:13:32;;;;;;;40.58;26.35;;;4.90;99.90;;;;;;5014479;28;20057;-64
2022/01/25 02:16:05;;;;;;;39.88;24.85;;;4.90;99.90;;;;;;5013162;28;20061;-64
2022/01/25 02:24:04;;;;;;;43.65;26.92;;;5.00;99.90;;;;;;5005526;28;20125;-64
2022/01/25 02:26:31;;;;;;;43.75;25.95;;;4.90;99.90;;;;;;4996634;28;20585;-64
2022/01/25 02:28:58;;;;;;;38.55;26.45;;;5.00;99.90;;;;;;4996348;28;20152;-64
2022/01/25 02:31:25;;;;;;;43.30;26.23;;;5.00;99.90;;;;;;4980058;28;20528;-64
2022/01/25 02:33:52;;;;;;;42.58;26.60;;;5.00;99.90;;;;;;4996608;28;20452;-65
2022/01/25 02:36:27;;;;;;;38.42;24.02;;;5.00;99.90;;;;;;4996320;28;20046;-63
2022/01/25 02:38:55;;;;;;;44.78;27.77;;;5.00;99.90;;;;;;4980268;28;20485;-64
2022/01/25 02:41:23;;;;;;;40.75;24.98;;;4.90;99.90;;;;;;4976172;28;20061;-64
2022/01/25 02:43:51;;;;;;;42.35;25.40;;;4.90;99.90;;;;;;4997994;28;20042;-64
2022/01/25 02:48:56;;;;;;;38.95;24.90;;;4.90;99.90;;;;;;5053939;28;20052;-64
2022/01/25 02:51:48;;;;;;;36.65;23.80;;;4.80;99.90;;;;;;5020993;28;20489;-64
2022/01/25 02:54:16;;;;;;;36.80;23.30;;;4.80;99.90;;;;;;5002948;28;20042;-64
2022/01/25 02:56:44;;;;;;;39.17;25.25;;;4.80;99.90;;;;;;5034319;28;20056;-64
2022/01/25 02:59:12;;;;;;;40.55;24.63;;;4.80;99.90;;;;;;5016406;28;20366;-64
2022/01/25 03:01:39;;;;;;;39.72;25.50;;;4.80;99.90;;;;;;5016096;28;20053;-64
2022/01/25 03:04:07;;;;;;;40.67;26.00;;;4.70;99.90;;;;;;5010639;28;20071;-64
2022/01/25 03:06:34;;;;;;;40.10;23.98;;;4.70;99.90;;;;;;5033864;28;20064;-64
2022/01/25 03:09:01;;;;;;;38.75;26.38;;;4.70;99.90;;;;;;5016350;28;20049;-64
2022/01/25 03:11:28;;;;;;;38.60;24.42;;;4.70;99.90;;;;;;5033182;28;20045;-64
2022/01/25 03:13:58;;;;;;;38.58;25.60;;;4.70;99.90;;;;;;5038688;28;20440;-64
2022/01/25 03:19:02;;;;;;;41.22;26.63;;;4.80;99.90;;;;;;5016820;28;20057;-64
2022/01/25 03:21:36;;;;;;;43.28;28.13;;;4.80;99.90;;;;;;5014982;28;20132;-64
2022/01/25 03:24:04;;;;;;;42.67;27.85;;;4.80;99.90;;;;;;5016950;28;20050;-64
2022/01/25 03:26:31;;;;;;;42.60;26.15;;;4.80;99.90;;;;;;4999382;28;20050;-64
2022/01/25 03:28:58;;;;;;;38.65;25.30;;;4.80;99.90;;;;;;5000747;28;20049;-64
2022/01/25 03:31:25;;;;;;;45.88;26.55;;;4.80;99.90;;;;;;5032708;28;20056;-68
2022/01/25 03:33:52;;;;;;;44.80;26.52;;;4.90;99.90;;;;;;5023112;28;20049;-64
2022/01/25 03:36:19;;;;;;;43.42;26.95;;;4.90;99.90;;;;;;5032807;28;20144;-53
2022/01/25 03:38:47;;;;;;;58.22;38.33;;;4.90;99.90;;;;;;5015559;28;20049;-70
2022/01/25 03:41:14;;;;;;;89.78;60.78;;;4.90;99.90;;;;;;5032973;28;20052;-64
2022/01/25 03:43:43;;;;;;;266.83;239.10;;;4.90;99.90;;;;;;5031244;28;20051;-64
2022/01/25 03:46:17;;;;;;;110.80;88.63;;;4.90;99.90;;;;;;4979318;28;20046;-65
2022/01/25 03:51:30;;;;;;;53.63;36.58;;;4.90;99.90;;;;;;5012273;28;20096;-64
2022/01/25 03:53:57;;;;;;;43.70;28.27;;;4.90;99.90;;;;;;5011102;28;20054;-64
2022/01/25 03:56:24;;;;;;;45.60;28.92;;;4.90;99.90;;;;;;5013097;28;20046;-64
2022/01/25 03:58:51;;;;;;;43.00;28.30;;;4.90;99.90;;;;;;4975639;28;20086;-64
2022/01/25 04:01:18;;;;;;;36.50;26.35;;;5.00;99.90;;;;;;5010947;28;20459;-64
2022/01/25 04:03:56;;;;;;;41.20;25.10;;;5.00;99.90;;;;;;4961585;28;20050;-65
2022/01/25 04:06:24;;;;;;;43.70;27.38;;;5.00;99.90;;;;;;4997631;28;20050;-65
2022/01/25 04:08:52;;;;;;;45.75;27.48;;;5.00;99.90;;;;;;5012255;28;20042;-64
2022/01/25 04:11:19;;;;;;;43.10;26.45;;;5.00;99.90;;;;;;4983862;28;20054;-65
2022/01/25 04:13:46;;;;;;;40.72;26.80;;;5.00;99.90;;;;;;4995202;28;20053;-65
2022/01/25 04:16:20;;;;;;;41.05;27.52;;;5.00;99.90;;;;;;4994464;28;20136;-65
2022/01/25 04:26:48;;;;;;;39.13;25.25;;;5.00;99.90;;;;;;5011576;28;20129;-65
2022/01/25 04:29:20;;;;;;;39.95;27.55;;;5.00;99.90;;;;;;5012344;28;20064;-65
2022/01/25 04:31:47;;;;;;;43.85;26.70;;;4.90;99.90;;;;;;5005650;28;20053;-65
2022/01/25 04:48:53;;;;;;;43.60;26.73;;;4.90;99.90;;;;;;5010639;28;20061;-65
2022/01/25 04:53:51;;;;;;;44.17;28.45;;;4.80;99.90;;;;;;5041682;28;20128;-65
2022/01/25 04:56:29;;;;;;;41.70;25.83;;;4.80;99.90;;;;;;5034550;28;20049;-64
2022/01/25 04:59:08;;;;;;;42.08;25.48;;;4.80;99.90;;;;;;5026059;28;20037;-65
2022/01/25 05:01:37;;;;;;;36.30;23.38;;;4.90;99.90;;;;;;5015767;28;20408;-64
2022/01/25 05:04:12;;;;;;;42.22;25.13;;;4.90;99.90;;;;;;5019443;28;20057;-65
2022/01/25 05:06:42;;;;;;;39.58;24.30;;;4.90;99.90;;;;;;5023380;28;20080;-65
2022/01/25 05:09:12;;;;;;;46.55;25.60;;;4.80;99.90;;;;;;5022998;28;20049;-64
2022/01/25 05:11:44;;;;;;;41.50;24.98;;;4.80;99.90;;;;;;5017137;28;20041;-64
2022/01/25 05:16:48;;;;;;;45.50;27.10;;;4.80;99.90;;;;;;5031910;28;20052;-64
2022/01/25 05:24:41;;;;;;;41.50;24.50;;;4.90;99.90;;;;;;5026315;28;20081;-65
2022/01/25 05:27:09;;;;;;;43.75;26.58;;;4.90;99.90;;;;;;5001581;28;20120;-64
2022/01/25 05:29:36;;;;;;;41.03;26.45;;;4.90;99.90;;;;;;5008353;28;20049;-65
2022/01/25 05:32:03;;;;;;;41.75;25.05;;;4.90;99.90;;;;;;5031497;28;20124;-64
2022/01/25 05:34:31;;;;;;;45.88;28.27;;;4.90;99.90;;;;;;5020258;28;20056;-64
2022/01/25 05:36:58;;;;;;;45.83;29.25;;;4.90;99.90;;;;;;5034988;28;20420;-64
2022/01/25 05:39:32;;;;;;;41.80;26.35;;;4.90;99.90;;;;;;5022364;28;20099;-65
2022/01/25 05:42:15;;;;;;;42.95;25.17;;;4.90;99.90;;;;;;5034309;28;20045;-64
2022/01/25 05:47:32;;;;;;;41.30;25.13;;;4.80;99.90;;;;;;4975625;28;20497;-64
2022/01/25 05:49:59;;;;;;;39.80;26.50;;;4.80;99.90;;;;;;5015080;28;20493;-65
2022/01/25 05:52:27;;;;;;;39.97;24.05;;;4.80;99.90;;;;;;4981155;28;20077;-64
2022/01/25 05:54:54;;;;;;;40.42;26.15;;;4.80;99.90;;;;;;4998212;28;20153;-65
2022/01/25 05:57:21;;;;;;;41.42;26.63;;;4.80;99.90;;;;;;4997405;28;20077;-65
2022/01/25 05:59:49;;;;;;;43.70;28.38;;;4.80;99.90;;;;;;4997422;28;20497;-65
2022/01/25 06:02:18;;;;;;;45.35;27.58;;;4.80;99.90;;;;;;4997622;28;20054;-64
2022/01/25 06:04:45;;;;;;;;;;;4.80;99.90;;;;;;4997387;28;20128;-65
2022/01/25 06:07:12;;;;;;;39.35;23.85;;;4.80;99.90;;;;;;5014823;28;19925;-65
2022/01/25 06:09:41;;;;;;;38.83;24.25;;;4.80;99.90;;;;;;5013615;28;20053;-64
2022/01/25 06:12:09;;;;;;;54.92;26.73;;;4.80;99.90;;;;;;5013491;28;20056;-64
2022/01/25 06:14:37;;;;;;;40.97;26.13;;;4.80;99.90;;;;;;5015172;28;20100;-64
2022/01/25 06:17:04;;;;;;;45.55;27.92;;;4.80;99.90;;;;;;5014195;28;20053;-66
2022/01/25 06:19:31;;;;;;;42.83;25.80;;;4.80;99.90;;;;;;4997609;28;20060;-65
2022/01/25 06:21:58;;;;;;;42.88;27.08;;;4.80;99.90;;;;;;5013112;28;20133;-64
2022/01/25 06:24:25;;;;;;;39.65;23.83;;;4.80;99.90;;;;;;4997210;28;20134;-65
2022/01/25 06:26:52;;;;;;;40.60;25.08;;;4.80;99.90;;;;;;4964974;28;20507;-64
2022/01/25 06:29:19;;;;;;;36.50;24.00;;;4.80;99.90;;;;;;5014303;28;20129;-64
2022/01/25 06:31:49;;;;;;;38.50;25.25;;;4.80;99.90;;;;;;4996519;28;20089;-64
2022/01/25 06:34:16;;;;;;;39.97;24.50;;;4.80;99.90;;;;;;4981483;28;20050;-65
2022/01/25 06:36:43;;;;;;;41.53;26.17;;;4.80;99.90;;;;;;5014065;28;20489;-65
2022/01/25 06:39:10;;;;;;;43.75;24.73;;;4.70;99.90;;;;;;5013154;28;20054;-65
2022/01/25 06:41:38;;;;;;;40.80;24.35;;;4.70;99.90;;;;;;4992581;28;20134;-65
2022/01/25 06:44:05;;;;;;;39.78;24.63;;;4.70;99.90;;;;;;5008782;28;20137;-65
2022/01/25 06:46:33;;;;;;;43.60;26.52;;;4.70;99.90;;;;;;5012231;28;20085;-64
2022/01/25 06:49:00;;;;;;;40.88;26.38;;;4.70;99.90;;;;;;5027892;28;20049;-64
2022/01/25 06:51:30;;;;;;;45.80;26.92;;;4.70;99.90;;;;;;5029965;28;20528;-64
2022/01/25 06:53:57;;;;;;;40.20;25.98;;;4.70;99.90;;;;;;5033600;28;20041;-68
2022/01/25 06:56:24;;;;;;;48.67;30.13;;;4.70;99.90;;;;;;5040899;28;20457;-66
2022/01/25 06:58:51;;;;;;;47.83;28.30;;;4.60;99.90;;;;;;5033557;28;20588;-65
2022/01/25 07:01:18;;;;;;;43.65;27.48;;;4.60;99.90;;;;;;5040993;28;20048;-66
2022/01/25 07:03:46;;;;;;;38.45;23.38;;;4.60;99.90;;;;;;5022338;28;20053;-64
2022/01/25 07:06:13;;;;;;;47.17;27.58;;;4.60;99.90;;;;;;5041004;28;20045;-64
2022/01/25 07:08:41;;;;;;;39.80;25.70;;;4.60;99.90;;;;;;5015429;28;20060;-64
2022/01/25 07:11:09;;;;;;;41.53;26.67;;;4.50;99.90;;;;;;5025099;28;20059;-65
2022/01/25 07:13:36;;;;;;;39.72;25.05;;;4.50;99.90;;;;;;5043706;28;20054;-66
2022/01/25 07:16:03;;;;;;;44.28;28.38;;;4.50;99.90;;;;;;5018920;28;20045;-63
2022/01/25 07:18:30;;;;;;;205.00;151.50;;;4.50;99.90;;;;;;5034496;28;20509;-62
2022/01/25 07:20:57;;;;;;;175.18;121.15;;;4.50;99.90;;;;;;5015679;28;20511;-63
2022/01/25 07:23:24;;;;;;;72.80;47.13;;;4.50;99.90;;;;;;5011627;28;20050;-64
2022/01/25 07:25:51;;;;;;;60.47;39.72;;;4.60;99.90;;;;;;5015537;28;20053;-63
2022/01/25 07:28:18;;;;;;;47.25;31.30;;;4.60;99.90;;;;;;5031860;28;20053;-65
2022/01/25 07:30:45;;;;;;;48.35;28.80;;;4.70;99.90;;;;;;5008283;28;20404;-63
2022/01/25 07:33:27;;;;;;;38.97;25.48;;;4.70;99.90;;;;;;5017501;28;20054;-62
2022/01/25 07:35:57;;;;;;;59.05;34.35;;;4.70;99.90;;;;;;5032532;28;20493;-69
2022/01/25 07:38:34;;;;;;;68.70;48.72;;;4.70;99.90;;;;;;5016433;28;20450;-63
2022/01/25 07:41:15;;;;;;;46.13;27.65;;;4.70;99.90;;;;;;5028645;28;20059;-63
2022/01/25 07:43:59;;;;;;;35.97;22.80;;;4.70;99.90;;;;;;5032703;28;20084;-62
2022/01/25 07:46:32;;;;;;;34.47;21.83;;;4.70;99.90;;;;;;5032484;28;20049;-63
2022/01/25 07:49:01;;;;;;;42.20;27.20;;;4.70;99.90;;;;;;4999890;28;20516;-63
2022/01/25 07:51:35;;;;;;;46.47;28.00;;;4.70;99.90;;;;;;5011976;28;20116;-63
2022/01/25 07:54:03;;;;;;;41.20;24.58;;;4.70;99.90;;;;;;4986799;28;20539;-65
2022/01/25 07:56:30;;;;;;;38.97;23.73;;;4.60;99.90;;;;;;4992343;28;20061;-63
2022/01/25 07:58:57;;;;;;;41.75;26.02;;;4.60;99.90;;;;;;5011759;28;20497;-63
2022/01/25 08:01:24;;;;;;;43.67;26.92;;;4.50;99.90;;;;;;5003454;28;20046;-63
2022/01/25 08:03:51;;;;;;;39.40;24.48;;;4.50;99.90;;;;;;5009920;28;20073;-63
2022/01/25 08:06:36;;;;;;;47.83;27.33;;;4.50;99.90;;;;;;4963339;28;20058;-62
2022/01/25 08:09:05;;;;;;;41.58;24.40;;;4.60;99.90;;;;;;4992560;28;20130;-63
2022/01/25 08:11:50;;;;;;;44.92;26.60;;;4.50;99.90;;;;;;4993541;28;20045;-62
2022/01/25 08:14:43;;;;;;;45.72;26.13;;;4.50;99.90;;;;;;4985399;28;20065;-63
2022/01/25 08:17:29;;;;;;;38.35;23.63;;;4.60;99.90;;;;;;4979947;28;20043;-68
2022/01/25 08:19:59;;;;;;;40.63;24.90;;;4.60;99.90;;;;;;5005784;28;20057;-63
2022/01/25 08:22:44;;;;;;;40.58;25.25;;;4.60;99.90;;;;;;4996690;28;20116;-63
2022/01/25 08:25:23;;;;;;;39.63;23.65;;;4.60;99.90;;;;;;5002109;28;20057;-64
2022/01/25 08:28:07;;;;;;;39.40;24.13;;;4.60;99.90;;;;;;4943743;29;20060;-63
2022/01/25 08:31:05;;;;;;;42.67;25.97;;;4.60;99.90;;;;;;4870168;29;20512;-63
2022/01/25 08:34:01;;;;;;;43.80;27.20;;;4.60;99.90;;;;;;4891169;29;20056;-64
2022/01/25 08:36:55;;;;;;;45.72;27.25;;;4.60;99.90;;;;;;4850169;29;20058;-63
2022/01/25 08:39:26;;;;;;;43.80;26.27;;;4.60;99.90;;;;;;4826472;29;20053;-63
2022/01/25 08:42:19;;;;;;;44.88;26.33;;;4.60;99.90;;;;;;4808584;29;20187;-62
2022/01/25 08:45:08;;;;;;;46.60;26.33;;;4.60;99.90;;;;;;4833059;29;20064;-67
2022/01/25 08:47:40;;;;;;;698.03;508.42;;;4.60;99.90;;;;;;4903454;29;20303;-63
2022/01/25 08:50:18;;;;;;;208.60;136.82;;;4.70;99.90;;;;;;4913273;29;20138;-63
2022/01/25 08:53:10;;;;;;;103.35;59.63;;;4.70;99.90;;;;;;4963401;28;20061;-63
2022/01/25 08:55:45;;;;;;;57.42;34.97;;;4.70;99.90;;;;;;4983732;28;20158;-63
2022/01/25 08:58:38;;;;;;;56.40;32.22;;;4.60;99.90;;;;;;4951537;29;20110;-64
2022/01/25 09:01:06;;;;;;;42.45;25.55;;;4.50;99.90;;;;;;4950926;29;20055;-64
2022/01/25 09:03:33;;;;;;;47.05;27.65;;;4.50;99.90;;;;;;4950573;29;20050;-64
2022/01/25 09:06:00;;;;;;;47.05;27.88;;;4.50;99.90;;;;;;4950544;29;20043;-64
2022/01/25 09:08:28;;;;;;;46.33;27.92;;;4.50;99.90;;;;;;4950480;29;20163;-64
2022/01/25 09:11:02;;;;;;;39.28;24.67;;;4.50;99.90;;;;;;4954493;28;20558;-64
2022/01/25 09:13:30;;;;;;;43.35;25.05;;;4.60;99.90;;;;;;4955448;29;20055;-63
2022/01/25 09:15:58;;;;;;;39.50;24.98;;;4.60;99.90;;;;;;4955542;28;20550;-64
2022/01/25 09:18:25;;;;;;;46.35;28.05;;;4.60;99.90;;;;;;4954158;29;20051;-64
2022/01/25 09:20:52;;;;;;;41.17;25.33;;;4.60;99.90;;;;;;4964570;28;20142;-64
2022/01/25 09:23:20;;;;;;;44.63;27.25;;;4.70;99.90;;;;;;5007266;28;20041;-64
2022/01/25 09:25:48;;;;;;;42.13;25.40;;;4.70;99.90;;;;;;5020981;28;20049;-64
2022/01/25 09:28:15;;;;;;;45.88;25.52;;;4.80;99.90;;;;;;5035357;28;20556;-64
2022/01/25 09:30:42;;;;;;;40.60;23.98;;;4.80;99.90;;;;;;5035028;28;20164;-67
2022/01/25 09:33:09;;;;;;;41.60;23.60;;;4.80;99.90;;;;;;5017220;28;20068;-64
2022/01/25 09:35:36;;;;;;;64.75;42.10;;;4.80;99.90;;;;;;5035961;28;20076;-64
2022/01/25 09:38:03;;;;;;;275.13;191.65;;;4.80;99.90;;;;;;5035244;28;20076;-64
2022/01/25 09:40:31;;;;;;;85.18;54.08;;;4.90;99.90;;;;;;5017474;28;20053;-65
2022/01/25 09:42:58;;;;;;;55.13;33.05;;;4.90;99.90;;;;;;5001025;28;20049;-69
2022/01/25 09:45:26;;;;;;;47.35;31.42;;;4.90;99.90;;;;;;5033091;28;20076;-68
2022/01/25 09:47:53;;;;;;;45.45;28.50;;;4.90;99.90;;;;;;5000616;28;20056;-70
2022/01/25 09:50:20;;;;;;;47.10;29.25;;;5.00;99.90;;;;;;5017055;28;20049;-68
2022/01/25 09:52:47;;;;;;;41.85;27.25;;;4.90;99.90;;;;;;5034723;28;20137;-70
2022/01/25 09:55:17;;;;;;;44.55;27.85;;;4.90;99.90;;;;;;5019852;28;20038;-69
2022/01/25 09:57:44;;;;;;;41.63;25.33;;;4.90;99.90;;;;;;5034313;28;20112;-68
2022/01/25 10:00:13;;;;;;;41.60;25.92;;;4.90;99.90;;;;;;5015966;28;20049;-66
2022/01/25 10:02:52;;;;;;;45.28;27.40;;;4.90;99.90;;;;;;5017504;28;20397;-65
2022/01/25 10:05:25;;;;;;;44.92;28.52;;;5.00;99.90;;;;;;5023236;28;20045;-66
2022/01/25 10:08:00;;;;;;;45.55;27.77;;;5.00;99.90;;;;;;5012913;28;20045;-66
2022/01/25 10:10:28;;;;;;;47.28;27.35;;;5.00;99.90;;;;;;5028798;28;20099;-64
2022/01/25 10:13:02;;;;;;;41.10;25.98;;;5.00;99.90;;;;;;5033162;28;20112;-69
2022/01/25 10:15:29;;;;;;;38.53;23.70;;;5.00;99.90;;;;;;5019605;28;20045;-64
2022/01/25 10:18:12;;;;;;;43.13;25.42;;;5.10;99.90;;;;;;5019606;28;20051;-69
2022/01/25 10:20:47;;;;;;;42.65;26.60;;;5.10;99.90;;;;;;5033435;28;20126;-64
2022/01/25 10:23:25;;;;;;;43.30;26.92;;;5.10;99.90;;;;;;4999443;28;20075;-63
2022/01/25 10:25:52;;;;;;;41.80;27.08;;;5.10;99.90;;;;;;5013811;28;20125;-64
2022/01/25 10:28:24;;;;;;;44.22;26.98;;;5.10;99.90;;;;;;5006927;28;20133;-64
2022/01/25 10:30:53;;;;;;;39.78;25.23;;;4.90;99.90;;;;;;5033775;28;20095;-64
2022/01/25 10:33:30;;;;;;;39.10;24.40;;;4.80;99.90;;;;;;5000305;28;20575;-64
2022/01/25 10:36:01;;;;;;;40.42;25.02;;;4.70;99.90;;;;;;5034140;28;20084;-70
2022/01/25 10:38:30;;;;;;;43.25;26.63;;;4.70;99.90;;;;;;4984351;28;20057;-70
2022/01/25 10:41:00;;;;;;;40.47;26.45;;;4.80;99.90;;;;;;5018865;28;20088;-72
2022/01/25 10:43:28;;;;;;;43.55;26.23;;;4.80;99.90;;;;;;5033561;28;20053;-66
2022/01/25 10:46:14;;;;;;;46.08;27.15;;;4.90;99.90;;;;;;5033172;28;20076;-69
2022/01/25 10:48:48;;;;;;;42.17;25.45;;;4.90;99.90;;;;;;5023757;28;20056;-70
2022/01/25 10:51:19;;;;;;;42.65;25.75;;;5.00;99.90;;;;;;5019675;28;20511;-67
2022/01/25 10:53:57;;;;;;;46.22;25.95;;;5.00;99.90;;;;;;4999151;28;20511;-68
2022/01/25 10:56:24;;;;;;;42.53;27.45;;;5.00;99.90;;;;;;5024082;28;20053;-64
2022/01/25 10:58:51;;;;;;;41.90;26.38;;;5.10;99.90;;;;;;5016062;28;20053;-64
2022/01/25 11:01:38;;;;;;;38.50;26.23;;;5.10;99.90;;;;;;5033754;28;20049;-67
2022/01/25 11:04:10;;;;;;;45.88;26.20;;;5.10;99.90;;;;;;5016453;28;20488;-66
2022/01/25 11:06:38;;;;;;;41.65;25.85;;;5.10;99.90;;;;;;5015624;28;20053;-66
2022/01/25 11:09:07;;;;;;;41.92;26.52;;;5.00;99.90;;;;;;5031324;28;20051;-64
2022/01/25 11:11:41;;;;;;;44.33;26.08;;;5.00;99.90;;;;;;5029907;28;20046;-63
2022/01/25 11:16:54;;;;;;;44.13;27.00;;;5.00;99.90;;;;;;5017594;28;20124;-74
2022/01/25 11:19:21;;;;;;;45.50;28.75;;;5.00;99.90;;;;;;5044286;28;20138;-75
2022/01/25 11:21:50;;;;;;;49.20;29.50;;;5.00;99.90;;;;;;5030179;28;20049;-66
2022/01/25 11:24:18;;;;;;;41.88;25.15;;;5.00;99.90;;;;;;5031714;28;20054;-69
2022/01/25 11:26:47;;;;;;;48.05;27.40;;;5.00;99.90;;;;;;5029606;28;20060;-68
2022/01/25 11:29:14;;;;;;;42.58;28.02;;;5.00;99.90;;;;;;5032570;28;20140;-67
2022/01/25 11:32:07;;;;;;;48.63;28.90;;;5.00;99.90;;;;;;4988240;28;20053;-71
2022/01/25 11:34:35;;;;;;;44.92;26.08;;;5.00;99.90;;;;;;5030617;28;20397;-66
2022/01/25 11:37:07;;;;;;;46.85;28.23;;;5.00;99.90;;;;;;5015859;28;20550;-68
2022/01/25 11:39:38;;;;;;;48.33;28.35;;;5.10;99.90;;;;;;4999143;28;20100;-64
2022/01/25 11:42:06;;;;;;;40.13;25.00;;;5.00;99.90;;;;;;4996152;28;20128;-66
2022/01/25 11:44:33;;;;;;;43.70;26.50;;;5.00;99.90;;;;;;5031186;28;20429;-64
2022/01/25 11:47:10;;;;;;;45.08;26.50;;;5.00;99.90;;;;;;5018145;28;20065;-64
2022/01/25 11:49:57;;;;;;;44.83;26.17;;;5.00;99.90;;;;;;5052651;28;20085;-67
2022/01/25 11:52:26;;;;;;;43.55;27.17;;;5.00;99.90;;;;;;5034738;28;20052;-65
2022/01/25 11:54:55;;;;;;;46.33;26.63;;;5.10;99.90;;;;;;5014248;28;20148;-77
2022/01/25 11:57:24;;;;;;;44.13;26.63;;;5.10;99.90;;;;;;4999242;28;20136;-71
2022/01/25 11:59:56;;;;;;;48.28;27.33;;;5.10;99.90;;;;;;5006315;28;20571;-76
2022/01/25 12:02:44;;;;;;;58.80;29.75;;;5.20;99.90;;;;;;5021814;28;20084;-67
2022/01/25 12:05:16;;;;;;;50.42;28.08;;;5.30;99.90;;;;;;5013214;28;20709;-67
2022/01/25 12:08:05;;;;;;;54.05;34.72;;;5.30;99.90;;;;;;5028159;28;20056;-66
2022/01/25 12:10:36;;;;;;;79.13;49.30;;;5.40;99.90;;;;;;5032475;28;20076;-68
2022/01/25 12:13:23;;;;;;;52.50;32.67;;;5.40;99.90;;;;;;5028850;28;20045;-70
2022/01/25 12:16:23;;;;;;;50.20;30.17;;;5.40;99.90;;;;;;5027604;28;20052;-67
2022/01/25 12:19:01;;;;;;;49.17;28.20;;;5.30;99.90;;;;;;4959600;28;20137;-67
2022/01/25 12:21:51;;;;;;;48.13;28.33;;;5.40;99.90;;;;;;4995893;28;20120;-68
2022/01/25 12:24:31;;;;;;;49.78;29.63;;;5.40;99.90;;;;;;5016128;28;20483;-66
2022/01/25 12:29:43;;;;;;;42.75;27.75;;;5.40;99.90;;;;;;5032314;28;20099;-68
2022/01/25 12:32:40;;;;;;;49.65;30.05;;;5.50;99.90;;;;;;4982049;28;20827;-76
2022/01/25 12:35:09;;;;;;;50.10;29.20;;;5.40;99.90;;;;;;4997949;28;20056;-70
2022/01/25 12:37:57;;;;;;;56.47;31.52;;;5.40;99.90;;;;;;4998459;28;20137;-70
2022/01/25 12:40:31;;;;;;;50.53;31.30;;;5.40;99.90;;;;;;4998316;28;20417;-70
2022/01/25 12:43:15;;;;;;;53.00;31.08;;;5.50;99.90;;;;;;5032271;28;20489;-71
2022/01/25 12:45:56;;;;;;;47.92;28.35;;;5.40;99.90;;;;;;5029482;28;20572;-72
2022/01/25 12:48:32;;;;;;;55.78;32.15;;;5.40;99.90;;;;;;5004206;28;20069;-70
2022/01/25 12:51:02;;;;;;;45.30;28.35;;;5.40;99.90;;;;;;5011262;28;20057;-70
2022/01/25 12:53:31;;;;;;;48.22;30.98;;;5.50;99.90;;;;;;5010922;28;20068;-68
2022/01/25 12:56:03;;;;;;;60.70;36.58;;;5.50;99.90;;;;;;5011928;28;20408;-73
2022/01/25 12:58:31;;;;;;;86.35;54.88;;;5.50;99.90;;;;;;5011949;28;20527;-70
2022/01/25 13:01:00;;;;;;;56.40;36.78;;;5.60;99.90;;;;;;4994761;28;20531;-66
2022/01/25 13:03:28;;;;;;;54.22;32.53;;;5.60;99.90;;;;;;4993784;28;20096;-66
2022/01/25 13:06:09;;;;;;;51.20;31.10;;;5.60;99.90;;;;;;4998739;28;20049;-66
2022/01/25 13:08:42;;;;;;;44.55;29.42;;;5.60;99.90;;;;;;4994358;28;20482;-66
2022/01/25 13:11:19;;;;;;;46.83;28.20;;;5.60;99.90;;;;;;4982741;28;20057;-68
2022/01/25 13:17:18;;;;;;;46.92;28.60;;;5.60;99.90;;;;;;5010236;28;20437;-66
2022/01/25 13:19:52;;;;;;;46.42;26.42;;;5.60;99.90;;;;;;4996713;28;20132;-68
2022/01/25 13:22:37;;;;;;;46.65;27.92;;;5.50;99.90;;;;;;4995062;28;20806;-70
2022/01/25 13:25:25;;;;;;;44.15;27.95;;;5.60;99.90;;;;;;5008556;28;20046;-69
2022/01/25 13:27:55;;;;;;;43.97;26.77;;;5.60;99.90;;;;;;5009935;28;20045;-70
2022/01/25 13:30:45;;;;;;;48.60;28.92;;;5.60;99.90;;;;;;4977289;28;20054;-67
2022/01/25 13:33:17;;;;;;;45.88;25.92;;;5.60;99.90;;;;;;5008589;28;20046;-67
2022/01/25 13:35:51;;;;;;;45.95;28.95;;;5.60;99.90;;;;;;4979395;28;20140;-77
2022/01/25 13:38:31;;;;;;;44.75;27.17;;;5.50;99.90;;;;;;4986633;28;20068;-68
2022/01/25 13:41:30;;;;;;;48.40;29.40;;;5.50;99.90;;;;;;5012117;28;20056;-67
2022/01/25 13:46:53;;;;;;;49.67;29.80;;;5.50;99.90;;;;;;5004044;28;20119;-72
2022/01/25 13:49:20;;;;;;;45.63;27.52;;;5.50;99.90;;;;;;5004947;28;20264;-69
2022/01/25 13:51:52;;;;;;;46.42;29.95;;;5.50;99.90;;;;;;5011433;28;20093;-68
2022/01/25 13:54:24;;;;;;;47.00;27.50;;;5.50;99.90;;;;;;4992482;28;20823;-66
2022/01/25 13:56:51;;;;;;;45.33;27.08;;;5.40;99.80;;;;;;4980231;28;20046;-71
2022/01/25 13:59:21;;;;;;;50.20;29.27;;;5.40;99.90;;;;;;4996200;28;20507;-71
2022/01/25 14:01:48;;;;;;;44.92;27.33;;;5.40;99.90;;;;;;4995527;28;20060;-69
2022/01/25 14:04:16;;;;;;;105.72;67.57;;;5.40;99.90;;;;;;4995134;28;20077;-66
2022/01/25 14:06:45;;;;;;;67.13;39.78;;;5.40;99.90;;;;;;4995896;28;20085;-68
2022/01/25 14:09:22;;;;;;;53.40;30.67;;;5.40;99.90;;;;;;4979665;28;20129;-66
2022/01/25 14:21:33;;;;;;;52.55;30.83;;;5.50;99.90;;;;;;4996250;28;20078;-65
2022/01/25 14:23:27;;;;;;;41.85;27.05;;;5.50;99.90;;;;;;5002706;28;20390;-66
2022/01/25 14:26:06;;;;;;;42.28;25.45;;;5.50;99.90;;;;;;4990894;28;20082;-65
2022/01/25 14:28:40;;;;;;;40.53;23.75;;;5.50;99.90;;;;;;4998266;28;20532;-65
2022/01/25 14:31:25;;;;;;;43.28;27.23;;;5.50;99.90;;;;;;4982414;28;20482;-65
2022/01/25 14:33:54;;;;;;;44.05;26.15;;;5.40;99.90;;;;;;5013145;28;20054;-68
2022/01/25 14:36:22;;;;;;;45.10;27.17;;;5.40;99.90;;;;;;4995411;28;20107;-66
2022/01/25 14:38:49;;;;;;;45.55;26.48;;;5.30;99.90;;;;;;4995318;28;20100;-66
2022/01/25 14:41:28;;;;;;;48.10;27.02;;;5.30;99.90;;;;;;4994896;28;20054;-64
2022/01/25 14:43:57;;;;;;;42.28;25.02;;;5.30;99.90;;;;;;4996189;28;20057;-65
2022/01/25 14:46:26;;;;;;;;;;;5.20;99.90;;;;;;5010565;28;20049;-67
2022/01/25 14:49:05;;;;;;;39.80;21.53;;;5.20;99.80;;;;;;5019745;28;19928;-65
2022/01/25 14:51:40;;;;;;;37.67;21.92;;;5.10;99.90;;;;;;5031765;28;20302;-65
2022/01/25 14:54:08;;;;;;;40.60;25.23;;;5.10;99.90;;;;;;5000800;28;20515;-68
2022/01/25 14:56:36;;;;;;;46.70;25.42;;;5.10;99.90;;;;;;4999211;28;20049;-65
2022/01/25 14:59:24;;;;;;;61.72;38.25;;;5.10;99.90;;;;;;5016502;28;20502;-65
2022/01/25 15:02:09;;;;;;;65.68;41.88;;;5.10;99.90;;;;;;4988218;28;20499;-65
2022/01/25 15:04:42;;;;;;;50.92;31.95;;;5.10;99.90;;;;;;4999624;28;20140;-66
2022/01/25 15:07:16;;;;;;;49.08;28.90;;;5.20;99.90;;;;;;4997799;28;20107;-67
2022/01/25 15:12:18;;;;;;;49.17;27.35;;;5.20;99.90;;;;;;5016498;28;20056;-67
2022/01/25 15:15:02;;;;;;;41.85;25.48;;;5.20;99.90;;;;;;5032538;28;20152;-66
2022/01/25 15:17:30;;;;;;;38.47;24.27;;;5.30;99.90;;;;;;5032230;28;20485;-70